createdAt,value
2019-03-31T00:02:24.197Z,72.00
2019-03-31T00:04:52.426Z,72.40
2019-03-31T00:07:20.656Z,73.00
2019-03-31T00:09:48.892Z,72.80
2019-03-31T00:12:17.442Z,73.00
2019-03-31T00:14:45.671Z,73.00
2019-03-31T00:17:13.880Z,73.20
2019-03-31T00:19:42.089Z,74.20
2019-03-31T00:22:10.311Z,74.60
2019-03-31T00:24:38.574Z,74.40
2019-03-31T00:27:06.811Z,74.30
2019-03-31T00:29:35.017Z,73.90
2019-03-31T00:32:03.230Z,74.00
2019-03-31T00:34:31.451Z,74.10
2019-03-31T00:36:59.657Z,73.80
2019-03-31T00:39:27.878Z,73.10
2019-03-31T00:41:56.082Z,72.40
2019-03-31T00:44:24.311Z,72.40
2019-03-31T00:46:52.511Z,72.80
2019-03-31T00:49:20.719Z,73.50
2019-03-31T00:52:08.372Z,74.20
2019-03-31T00:54:36.567Z,74.90
2019-03-31T00:57:04.798Z,75.40
2019-03-31T00:59:32.989Z,75.70
2019-03-31T01:02:02.846Z,75.80
2019-03-31T01:04:31.052Z,75.60
2019-03-31T01:06:59.624Z,75.60
2019-03-31T01:09:29.516Z,75.60
2019-03-31T01:11:57.742Z,75.80
2019-03-31T01:14:26.004Z,76.30
2019-03-31T01:16:54.795Z,76.80
2019-03-31T01:19:23.010Z,75.90
2019-03-31T01:21:51.253Z,75.60
2019-03-31T01:24:19.523Z,75.40
2019-03-31T01:26:47.725Z,75.20
2019-03-31T01:29:15.939Z,74.40
2019-03-31T01:31:50.273Z,73.90
2019-03-31T01:34:14.428Z,73.60
2019-03-31T01:36:42.635Z,73.70
2019-03-31T01:39:10.864Z,73.70
2019-03-31T01:41:39.055Z,73.60
2019-03-31T01:44:07.264Z,73.40
2019-03-31T01:46:35.492Z,73.70
2019-03-31T01:49:03.701Z,74.60
2019-03-31T01:51:31.902Z,75.70
2019-03-31T01:54:00.117Z,76.00
2019-03-31T01:56:28.336Z,76.40
2019-03-31T01:58:56.556Z,75.70
2019-03-31T02:01:24.780Z,76.20
2019-03-31T02:03:52.987Z,76.00
2019-03-31T02:06:21.200Z,76.30
2019-03-31T02:08:49.403Z,76.70
2019-03-31T02:11:17.988Z,77.10
2019-03-31T02:13:46.264Z,77.60
2019-03-31T02:16:14.487Z,78.70
2019-03-31T02:18:42.685Z,79.20
2019-03-31T02:21:10.892Z,79.60
2019-03-31T02:23:39.130Z,79.90
2019-03-31T02:26:07.337Z,80.30
2019-03-31T02:28:35.549Z,80.70
2019-03-31T02:31:03.772Z,81.40
2019-03-31T02:33:31.968Z,82.30
2019-03-31T02:36:00.169Z,82.00
2019-03-31T02:38:28.387Z,81.80
2019-03-31T02:40:56.586Z,81.40
2019-03-31T02:43:24.797Z,81.60
2019-03-31T02:45:53.004Z,80.80
2019-03-31T02:48:21.227Z,81.00
2019-03-31T02:50:50.383Z,80.80
2019-03-31T02:53:19.058Z,79.70
2019-03-31T02:55:47.520Z,80.20
2019-03-31T02:58:15.895Z,80.60
2019-03-31T03:00:44.392Z,80.20
2019-03-31T03:03:17.060Z,80.30
2019-03-31T03:05:45.673Z,80.50
2019-03-31T03:08:13.945Z,80.20
2019-03-31T03:10:43.564Z,80.20
2019-03-31T03:13:13.596Z,79.80
2019-03-31T03:15:57.142Z,79.90
2019-03-31T03:18:25.370Z,79.70
2019-03-31T03:20:53.568Z,80.20
2019-03-31T03:23:21.789Z,81.30
2019-03-31T03:25:56.142Z,81.60
2019-03-31T03:28:19.956Z,81.30
2019-03-31T03:30:48.391Z,81.20
2019-03-31T03:33:18.199Z,81.30
2019-03-31T03:35:46.715Z,81.60
2019-03-31T03:38:14.936Z,81.90
2019-03-31T03:40:43.167Z,82.10
2019-03-31T03:43:11.386Z,81.90
2019-03-31T03:45:39.605Z,82.70
2019-03-31T03:48:07.809Z,82.80
2019-03-31T03:50:36.033Z,82.90
2019-03-31T03:53:04.241Z,82.80
2019-03-31T03:55:32.461Z,83.00
2019-03-31T03:58:00.663Z,82.60
2019-03-31T04:00:28.882Z,82.10
2019-03-31T04:02:57.115Z,82.20
2019-03-31T04:05:25.366Z,82.60
2019-03-31T04:07:53.628Z,83.00
2019-03-31T04:10:44.573Z,83.40
2019-03-31T04:13:12.960Z,83.80
2019-03-31T04:15:41.185Z,84.00
2019-03-31T04:18:09.397Z,84.70
2019-03-31T04:20:39.539Z,84.60
2019-03-31T04:23:07.555Z,85.40
2019-03-31T04:25:35.765Z,85.50
2019-03-31T04:28:03.982Z,85.90
2019-03-31T04:30:32.177Z,86.30
2019-03-31T04:33:00.417Z,86.60
2019-03-31T04:35:28.680Z,88.00
2019-03-31T04:37:56.938Z,87.50
2019-03-31T04:40:25.143Z,87.80
2019-03-31T04:42:53.354Z,87.70
2019-03-31T04:45:21.591Z,87.60
2019-03-31T04:47:49.797Z,87.90
2019-03-31T04:50:18.012Z,87.80
2019-03-31T04:52:46.221Z,88.20
2019-03-31T04:55:14.467Z,88.10
2019-03-31T04:57:42.664Z,88.30
2019-03-31T05:00:10.970Z,88.70
2019-03-31T05:02:39.191Z,89.70
2019-03-31T05:05:07.464Z,89.70
2019-03-31T05:07:35.657Z,90.00
2019-03-31T05:10:05.654Z,90.20
2019-03-31T05:12:33.861Z,89.70
2019-03-31T05:15:02.090Z,89.70
2019-03-31T05:17:30.296Z,89.70
2019-03-31T05:19:58.515Z,89.30
2019-03-31T05:22:26.739Z,88.90
2019-03-31T05:24:54.952Z,88.80
2019-03-31T05:27:23.191Z,88.40
2019-03-31T05:29:51.388Z,88.80
2019-03-31T05:32:19.640Z,88.90
2019-03-31T05:34:47.834Z,88.90
2019-03-31T05:37:16.087Z,88.70
2019-03-31T05:39:44.291Z,88.80
2019-03-31T05:42:12.535Z,88.70
2019-03-31T05:44:40.757Z,88.40
2019-03-31T05:47:08.959Z,88.20
2019-03-31T05:49:37.174Z,88.20
2019-03-31T05:52:05.378Z,87.70
2019-03-31T05:54:33.596Z,87.60
2019-03-31T05:57:01.808Z,87.80
2019-03-31T05:59:30.025Z,87.50
2019-03-31T06:01:58.237Z,86.60
2019-03-31T06:04:33.025Z,86.30
2019-03-31T06:06:56.397Z,86.40
2019-03-31T06:09:24.603Z,85.10
2019-03-31T06:11:53.601Z,83.70
2019-03-31T06:14:22.104Z,83.50
2019-03-31T06:16:50.320Z,83.50
2019-03-31T06:19:18.524Z,83.20
2019-03-31T06:21:46.741Z,82.50
2019-03-31T06:24:14.941Z,81.80
2019-03-31T06:26:43.172Z,81.80
2019-03-31T06:29:11.376Z,80.60
2019-03-31T06:31:39.588Z,80.80
2019-03-31T06:34:07.885Z,78.80
2019-03-31T06:36:36.142Z,77.30
2019-03-31T06:39:06.808Z,76.50
2019-03-31T06:41:34.331Z,74.70
2019-03-31T06:44:02.543Z,74.20
2019-03-31T06:46:30.772Z,73.00
2019-03-31T06:48:59.071Z,71.00
2019-03-31T06:51:27.280Z,69.20
2019-03-31T06:53:55.508Z,67.70
2019-03-31T06:56:23.732Z,66.00
2019-03-31T06:58:51.953Z,63.10
2019-03-31T07:01:20.175Z,56.90
2019-03-31T07:03:48.381Z,54.50
2019-03-31T07:06:16.590Z,52.10
2019-03-31T07:08:44.800Z,50.20
2019-03-31T07:11:13.101Z,48.20
2019-03-31T07:13:41.311Z,45.40
2019-03-31T07:16:09.512Z,43.80
2019-03-31T07:18:37.764Z,42.60
2019-03-31T07:21:05.971Z,41.40
2019-03-31T07:23:34.187Z,39.40
2019-03-31T07:26:02.400Z,39.20
2019-03-31T07:28:30.865Z,40.10
2019-03-31T07:30:59.471Z,42.50
2019-03-31T07:33:27.899Z,41.60
2019-03-31T07:35:56.104Z,42.40
2019-03-31T07:38:38.047Z,40.20
2019-03-31T07:40:54.395Z,37.30
2019-03-31T07:43:22.959Z,35.00
2019-03-31T07:45:51.166Z,33.00
2019-03-31T07:48:19.371Z,33.70
2019-03-31T07:50:47.597Z,35.20
2019-03-31T07:53:15.800Z,36.10
2019-03-31T07:55:44.042Z,36.30
2019-03-31T07:58:12.301Z,38.00
2019-03-31T08:00:40.523Z,36.90
2019-03-31T08:03:08.748Z,36.50
2019-03-31T08:05:37.784Z,35.90
2019-03-31T08:08:06.059Z,35.90
2019-03-31T08:10:34.272Z,35.90
2019-03-31T08:13:02.526Z,36.20
2019-03-31T08:15:30.792Z,36.60
2019-03-31T08:17:59.093Z,36.70
2019-03-31T08:20:27.320Z,37.10
2019-03-31T08:22:57.063Z,34.90
2019-03-31T08:25:25.533Z,35.20
2019-03-31T08:27:53.748Z,34.40
2019-03-31T08:30:21.976Z,33.00
2019-03-31T08:32:50.199Z,35.40
2019-03-31T08:35:18.415Z,35.20
2019-03-31T08:37:46.657Z,33.60
2019-03-31T08:40:15.648Z,33.50
2019-03-31T08:42:43.900Z,31.50
2019-03-31T08:45:12.164Z,30.60
2019-03-31T08:47:40.422Z,31.00
2019-03-31T08:50:08.656Z,31.00
2019-03-31T08:52:36.939Z,32.40
2019-03-31T08:55:05.488Z,30.30
2019-03-31T08:57:33.780Z,30.40
2019-03-31T09:00:02.013Z,31.20
2019-03-31T09:02:31.882Z,32.30
2019-03-31T09:05:00.371Z,32.60
2019-03-31T09:07:28.613Z,34.40
2019-03-31T09:09:56.840Z,34.90
2019-03-31T09:12:25.050Z,34.80
2019-03-31T09:14:53.290Z,35.00
2019-03-31T09:17:21.500Z,33.80
2019-03-31T09:19:50.067Z,33.50
2019-03-31T09:22:18.308Z,32.00
2019-03-31T09:24:46.525Z,29.50
2019-03-31T09:27:14.807Z,30.40
2019-03-31T09:29:43.033Z,30.90
2019-03-31T09:32:11.255Z,32.60
2019-03-31T09:34:39.487Z,31.10
2019-03-31T09:37:07.696Z,31.70
2019-03-31T09:39:35.913Z,30.00
2019-03-31T09:42:04.144Z,31.00
2019-03-31T09:44:32.389Z,32.70
2019-03-31T09:47:00.600Z,33.90
2019-03-31T09:49:28.812Z,34.80
2019-03-31T09:51:57.052Z,34.10
2019-03-31T09:54:25.279Z,33.30
2019-03-31T09:56:53.528Z,34.80
2019-03-31T09:59:21.744Z,33.90
2019-03-31T10:01:49.961Z,33.00
2019-03-31T10:04:18.209Z,30.60
2019-03-31T10:06:46.444Z,31.60
2019-03-31T10:09:14.724Z,32.10
2019-03-31T10:11:42.953Z,33.80
2019-03-31T10:14:11.164Z,35.70
2019-03-31T10:16:39.414Z,33.60
2019-03-31T10:19:07.664Z,33.60
2019-03-31T10:21:35.882Z,32.20
2019-03-31T10:24:04.328Z,30.40
2019-03-31T10:26:32.667Z,30.10
2019-03-31T10:29:00.934Z,30.30
2019-03-31T10:31:29.170Z,30.10
2019-03-31T10:33:57.377Z,29.40
2019-03-31T10:36:25.770Z,31.70
2019-03-31T10:38:54.248Z,29.10
2019-03-31T10:41:22.473Z,29.80
2019-03-31T10:43:50.701Z,30.60
2019-03-31T10:46:18.940Z,31.60
2019-03-31T10:48:47.159Z,32.70
2019-03-31T10:51:15.363Z,32.60
2019-03-31T10:53:43.586Z,31.20
2019-03-31T10:56:11.812Z,29.50
2019-03-31T10:58:40.023Z,29.30
2019-03-31T11:01:08.258Z,29.50
2019-03-31T11:03:36.472Z,28.30
2019-03-31T11:06:04.699Z,28.30
2019-03-31T11:08:32.912Z,29.50
2019-03-31T11:11:01.131Z,29.20
2019-03-31T11:13:29.348Z,27.90
2019-03-31T11:15:57.716Z,28.10
2019-03-31T11:18:26.063Z,25.90
2019-03-31T11:20:54.290Z,27.20
2019-03-31T11:23:27.184Z,28.90
2019-03-31T11:25:55.375Z,27.50
2019-03-31T11:28:23.599Z,27.60
2019-03-31T11:30:51.829Z,26.50
2019-03-31T11:33:20.039Z,27.00
2019-03-31T11:35:48.256Z,25.30
2019-03-31T11:38:16.467Z,25.20
2019-03-31T11:40:44.701Z,25.60
2019-03-31T11:43:12.902Z,26.10
2019-03-31T11:45:41.111Z,26.20
2019-03-31T11:48:09.329Z,26.90
2019-03-31T11:50:37.546Z,27.10
2019-03-31T11:53:05.748Z,28.30
2019-03-31T11:55:34.037Z,27.80
2019-03-31T11:58:02.343Z,27.20
2019-03-31T12:00:32.208Z,26.60
2019-03-31T12:03:00.439Z,26.30
2019-03-31T12:05:28.721Z,26.00
2019-03-31T12:07:56.932Z,25.80
2019-03-31T12:10:25.159Z,24.10
2019-03-31T12:12:53.366Z,25.50
2019-03-31T12:15:21.590Z,25.50
2019-03-31T12:17:49.804Z,26.20
2019-03-31T12:20:18.038Z,26.90
2019-03-31T12:22:46.244Z,27.40
2019-03-31T12:25:14.482Z,28.50
2019-03-31T12:27:42.689Z,27.90
2019-03-31T12:30:10.920Z,28.10
2019-03-31T12:32:39.132Z,28.80
2019-03-31T12:35:07.684Z,27.20
2019-03-31T12:37:42.730Z,26.90
2019-03-31T12:40:32.740Z,28.10
2019-03-31T12:43:00.959Z,27.60
2019-03-31T12:45:29.168Z,28.00
2019-03-31T12:47:59.646Z,27.60
2019-03-31T12:50:27.402Z,27.70
2019-03-31T12:52:55.608Z,27.70
2019-03-31T12:55:23.841Z,28.00
2019-03-31T12:57:52.313Z,27.40
2019-03-31T13:00:20.556Z,26.90
2019-03-31T13:02:48.780Z,27.60
2019-03-31T13:05:16.997Z,25.90
2019-03-31T13:07:55.627Z,27.80
2019-03-31T13:10:15.179Z,28.20
2019-03-31T13:12:43.409Z,29.70
2019-03-31T13:15:11.631Z,28.40
2019-03-31T13:17:39.835Z,30.00
2019-03-31T13:20:08.734Z,29.80
2019-03-31T13:22:36.944Z,27.30
2019-03-31T13:25:06.504Z,29.10
2019-03-31T13:27:34.721Z,30.70
2019-03-31T13:30:02.939Z,29.10
2019-03-31T13:32:31.161Z,28.50
2019-03-31T13:34:59.392Z,29.50
2019-03-31T13:37:27.617Z,33.50
2019-03-31T13:39:55.848Z,36.70
2019-03-31T13:42:24.056Z,40.00
2019-03-31T13:44:52.282Z,41.10
2019-03-31T13:47:20.499Z,43.00
2019-03-31T13:49:48.725Z,44.50
2019-03-31T13:52:16.961Z,44.90
2019-03-31T13:54:45.173Z,44.70
2019-03-31T13:57:14.013Z,45.20
2019-03-31T13:59:42.395Z,44.90
2019-03-31T14:02:10.619Z,45.30
2019-03-31T14:04:51.034Z,45.90
2019-03-31T14:07:08.785Z,46.70
2019-03-31T14:09:37.247Z,45.30
2019-03-31T14:12:05.468Z,44.70
2019-03-31T14:14:33.692Z,42.90
2019-03-31T14:17:01.903Z,43.80
2019-03-31T14:19:30.123Z,43.10
2019-03-31T14:21:58.336Z,41.20
2019-03-31T14:24:27.094Z,39.60
2019-03-31T14:26:55.576Z,39.90
2019-03-31T14:29:23.812Z,38.30
2019-03-31T14:31:52.270Z,37.70
2019-03-31T14:34:20.516Z,37.30
2019-03-31T14:36:48.752Z,38.50
2019-03-31T14:39:17.315Z,37.10
2019-03-31T14:41:45.721Z,36.80
2019-03-31T14:44:13.927Z,36.40
2019-03-31T14:46:42.167Z,36.20
2019-03-31T14:49:10.392Z,36.40
2019-03-31T14:51:38.624Z,37.70
2019-03-31T14:54:06.836Z,38.60
2019-03-31T14:56:35.055Z,41.20
2019-03-31T14:59:03.338Z,44.00
2019-03-31T15:01:31.567Z,45.60
2019-03-31T15:03:59.798Z,47.60
2019-03-31T15:06:28.036Z,49.10
2019-03-31T15:08:56.256Z,49.90
2019-03-31T15:11:24.524Z,49.90
2019-03-31T15:13:52.737Z,50.20
2019-03-31T15:16:21.019Z,50.00
2019-03-31T15:18:49.236Z,49.90
2019-03-31T15:21:17.456Z,50.60
2019-03-31T15:23:45.701Z,50.80
2019-03-31T15:26:13.931Z,50.90
2019-03-31T15:28:45.302Z,50.60
2019-03-31T15:31:12.098Z,50.70
2019-03-31T15:33:40.299Z,51.00
2019-03-31T15:36:08.539Z,52.00
2019-03-31T15:38:36.784Z,51.90
2019-03-31T15:41:05.051Z,51.90
2019-03-31T15:43:33.276Z,52.20
2019-03-31T15:46:01.484Z,52.60
2019-03-31T15:48:29.705Z,52.00
2019-03-31T15:50:57.921Z,52.40
2019-03-31T15:53:26.149Z,53.00
2019-03-31T15:55:54.460Z,53.70
2019-03-31T15:58:22.697Z,53.40
2019-03-31T16:00:50.912Z,53.90
2019-03-31T16:03:19.141Z,53.80
2019-03-31T16:05:47.361Z,54.30
2019-03-31T16:08:15.585Z,54.00
2019-03-31T16:10:43.818Z,54.60
2019-03-31T16:13:12.019Z,54.50
2019-03-31T16:15:40.246Z,55.40
2019-03-31T16:18:08.527Z,55.50
2019-03-31T16:20:36.768Z,55.80
2019-03-31T16:23:04.982Z,55.30
2019-03-31T16:25:34.859Z,56.10
2019-03-31T16:28:03.090Z,56.40
2019-03-31T16:30:31.669Z,57.00
2019-03-31T16:32:59.908Z,57.50
2019-03-31T16:35:28.152Z,57.40
2019-03-31T16:37:56.349Z,57.40
2019-03-31T16:40:24.588Z,57.90
2019-03-31T16:42:52.839Z,58.30
2019-03-31T16:45:21.020Z,58.20
2019-03-31T16:47:49.247Z,58.70
2019-03-31T16:50:17.527Z,59.00
2019-03-31T16:52:45.802Z,59.20
2019-03-31T16:55:14.019Z,59.50
2019-03-31T16:57:42.234Z,59.90
2019-03-31T17:00:13.478Z,59.20
2019-03-31T17:02:44.213Z,58.80
2019-03-31T17:05:21.736Z,59.30
2019-03-31T17:07:41.575Z,60.40
2019-03-31T17:10:09.803Z,59.10
2019-03-31T17:12:38.028Z,59.50
2019-03-31T17:15:08.984Z,59.70
2019-03-31T17:17:37.191Z,59.40
2019-03-31T17:20:06.064Z,59.80
2019-03-31T17:22:34.281Z,60.00
2019-03-31T17:25:02.853Z,60.40
2019-03-31T17:27:31.073Z,60.10
2019-03-31T17:29:59.300Z,60.20
2019-03-31T17:32:27.515Z,60.10
2019-03-31T17:34:55.767Z,60.90
2019-03-31T17:37:24.045Z,61.30
2019-03-31T17:40:05.354Z,61.60
2019-03-31T17:42:22.266Z,61.70
2019-03-31T17:44:50.513Z,62.10
2019-03-31T17:47:18.723Z,62.40
2019-03-31T17:49:46.937Z,62.40
2019-03-31T17:52:15.172Z,62.70
2019-03-31T17:54:43.375Z,62.60
2019-03-31T17:57:11.621Z,62.60
2019-03-31T17:59:39.839Z,62.50
2019-03-31T18:02:08.068Z,62.50
2019-03-31T18:04:38.378Z,62.70
2019-03-31T18:07:06.248Z,62.80
2019-03-31T18:09:34.488Z,63.00
2019-03-31T18:12:02.696Z,62.50
2019-03-31T18:14:30.941Z,62.60
2019-03-31T18:16:59.160Z,62.50
2019-03-31T18:19:27.395Z,62.40
2019-03-31T18:21:55.611Z,62.50
2019-03-31T18:24:23.904Z,62.40
2019-03-31T18:26:52.136Z,62.20
2019-03-31T18:29:20.344Z,63.20
2019-03-31T18:31:48.567Z,62.80
2019-03-31T18:34:16.806Z,62.80
2019-03-31T18:36:45.012Z,62.90
2019-03-31T18:39:13.224Z,62.80
2019-03-31T18:41:41.443Z,63.20
2019-03-31T18:44:09.648Z,63.50
2019-03-31T18:46:37.889Z,63.70
2019-03-31T18:49:06.100Z,63.80
2019-03-31T18:51:34.327Z,64.50
2019-03-31T18:54:16.492Z,64.40
2019-03-31T18:56:46.355Z,64.50
2019-03-31T18:59:31.326Z,64.50
2019-03-31T19:02:17.579Z,65.40
2019-03-31T19:05:05.709Z,65.40
2019-03-31T19:07:35.601Z,65.00
2019-03-31T19:10:23.715Z,65.20
2019-03-31T19:12:50.356Z,65.30
2019-03-31T19:15:23.016Z,65.50
2019-03-31T19:18:04.548Z,65.80
2019-03-31T19:20:40.092Z,65.70
2019-03-31T19:23:19.190Z,66.10
2019-03-31T19:25:51.757Z,66.00
2019-03-31T19:28:21.688Z,66.20
2019-03-31T19:30:51.571Z,66.50
2019-03-31T19:33:21.435Z,66.70
2019-03-31T19:35:51.317Z,66.90
2019-03-31T19:38:49.466Z,67.10
2019-03-31T19:41:36.290Z,67.30
2019-03-31T19:44:09.421Z,67.70
2019-03-31T19:46:42.219Z,67.60
2019-03-31T19:49:15.098Z,67.70
2019-03-31T19:51:47.612Z,67.70
2019-03-31T19:54:23.557Z,67.60
2019-03-31T19:56:53.408Z,67.50
2019-03-31T19:59:35.229Z,67.70
2019-03-31T20:02:08.385Z,67.50
2019-03-31T20:04:50.307Z,67.40
2019-03-31T20:07:22.833Z,67.30
2019-03-31T20:10:07.749Z,67.70
2019-03-31T20:12:40.597Z,67.80
2019-03-31T20:15:13.167Z,67.80
2019-03-31T20:17:45.872Z,68.00
2019-03-31T20:20:15.785Z,67.90
2019-03-31T20:22:48.573Z,68.10
2019-03-31T20:25:34.685Z,67.90
2019-03-31T20:28:21.008Z,67.90
2019-03-31T20:30:50.875Z,68.60
2019-03-31T20:33:37.112Z,68.20
2019-03-31T20:36:06.962Z,68.30
2019-03-31T20:38:38.148Z,68.10
2019-03-31T20:41:23.255Z,67.90
2019-03-31T20:43:53.640Z,67.90
2019-03-31T20:46:22.616Z,67.80
2019-03-31T20:48:51.440Z,67.70
2019-03-31T20:51:19.653Z,67.50
2019-03-31T20:53:47.937Z,67.40
2019-03-31T20:56:16.144Z,67.20
2019-03-31T20:58:44.374Z,67.30
2019-03-31T21:01:12.631Z,67.50
2019-03-31T21:03:40.825Z,67.50
2019-03-31T21:06:09.036Z,68.30
2019-03-31T21:08:37.422Z,67.80
2019-03-31T21:11:05.940Z,67.70
2019-03-31T21:13:34.409Z,68.10
2019-03-31T21:16:02.606Z,67.70
2019-03-31T21:18:30.833Z,68.10
2019-03-31T21:20:59.051Z,68.20
2019-03-31T21:23:27.275Z,68.40
2019-03-31T21:25:57.109Z,68.40
2019-03-31T21:28:25.323Z,68.60
2019-03-31T21:30:53.564Z,68.70
2019-03-31T21:33:21.768Z,68.80
2019-03-31T21:35:49.968Z,69.20
2019-03-31T21:38:18.185Z,68.90
2019-03-31T21:40:46.391Z,69.00
2019-03-31T21:43:14.633Z,69.30
2019-03-31T21:45:43.005Z,69.40
2019-03-31T21:48:11.349Z,69.50
2019-03-31T21:50:39.584Z,69.80
2019-03-31T21:53:07.783Z,69.90
2019-03-31T21:55:35.992Z,70.20
2019-03-31T21:58:04.242Z,70.10
2019-03-31T22:00:37.289Z,70.60
2019-03-31T22:03:05.577Z,70.50
2019-03-31T22:05:33.832Z,70.80
2019-03-31T22:08:03.926Z,70.80
2019-03-31T22:10:32.006Z,71.10
2019-03-31T22:13:00.198Z,71.70
2019-03-31T22:15:28.425Z,71.80
2019-03-31T22:17:56.639Z,72.10
2019-03-31T22:20:24.859Z,72.10
2019-03-31T22:22:53.082Z,72.20
2019-03-31T22:25:21.283Z,72.30
2019-03-31T22:27:49.513Z,72.30
2019-03-31T22:30:17.755Z,72.60
2019-03-31T22:32:45.981Z,72.80
2019-03-31T22:35:14.188Z,72.70
2019-03-31T22:37:42.413Z,72.60
2019-03-31T22:40:10.656Z,72.70
2019-03-31T22:42:38.836Z,72.70
2019-03-31T22:45:07.065Z,73.00
2019-03-31T22:47:35.279Z,72.90
2019-03-31T22:50:03.871Z,73.50
2019-03-31T22:52:32.084Z,73.20
2019-03-31T22:55:00.375Z,73.50
2019-03-31T22:57:28.636Z,73.70
2019-03-31T22:59:56.857Z,73.80
2019-03-31T23:02:25.073Z,73.80
2019-03-31T23:04:53.325Z,73.90
2019-03-31T23:07:21.545Z,74.10
2019-03-31T23:09:49.746Z,74.20
2019-03-31T23:12:17.984Z,74.50
2019-03-31T23:14:46.202Z,74.50
2019-03-31T23:17:14.413Z,74.70
2019-03-31T23:19:42.641Z,74.80
2019-03-31T23:22:10.921Z,74.90
2019-03-31T23:24:39.148Z,74.90
2019-03-31T23:27:07.355Z,75.00
2019-03-31T23:29:35.594Z,75.10
2019-03-31T23:32:03.814Z,75.30
2019-03-31T23:34:32.021Z,75.30
2019-03-31T23:37:00.232Z,75.10
2019-03-31T23:39:28.446Z,75.40
2019-03-31T23:41:56.677Z,75.40
2019-03-31T23:44:24.896Z,75.60
2019-03-31T23:46:53.123Z,76.00
2019-03-31T23:49:21.320Z,76.10
2019-03-31T23:51:49.563Z,76.40
2019-03-31T23:54:17.763Z,76.20
2019-03-31T23:56:45.994Z,76.20
2019-03-31T23:59:14.217Z,76.50
